createdAt,value
2023-02-05T00:01:26.636Z,1.00
2023-02-05T00:04:12.351Z,0.91
2023-02-05T00:06:57.662Z,0.80
2023-02-05T00:09:43.049Z,0.81
2023-02-05T00:12:28.355Z,0.88
2023-02-05T00:15:13.765Z,0.86
2023-02-05T00:17:59.213Z,0.69
2023-02-05T00:20:44.576Z,0.52
2023-02-05T00:23:30.200Z,0.54
2023-02-05T00:26:15.944Z,0.73
2023-02-05T00:29:02.562Z,0.75
2023-02-05T00:31:49.736Z,0.71
2023-02-05T00:34:35.337Z,0.64
2023-02-05T00:37:20.694Z,0.51
2023-02-05T00:40:08.796Z,0.51
2023-02-05T00:42:54.183Z,0.60
2023-02-05T00:45:39.909Z,0.59
2023-02-05T00:48:25.341Z,0.55
2023-02-05T00:51:12.108Z,0.47
2023-02-05T00:53:57.757Z,0.44
2023-02-05T00:56:43.032Z,0.48
2023-02-05T00:59:28.283Z,0.50
2023-02-05T01:02:13.601Z,0.45
2023-02-05T01:04:59.222Z,0.34
2023-02-05T01:07:44.686Z,0.25
2023-02-05T01:10:29.896Z,0.25
2023-02-05T01:13:18.054Z,0.29
2023-02-05T01:16:04.519Z,0.29
2023-02-05T01:18:50.325Z,0.15
2023-02-05T01:21:36.501Z,-0.09
2023-02-05T01:24:22.036Z,-0.27
2023-02-05T01:27:07.493Z,-0.29
2023-02-05T01:29:52.894Z,-0.33
2023-02-05T01:32:40.657Z,-0.48
2023-02-05T01:35:26.467Z,-0.67
2023-02-05T01:38:13.157Z,-0.77
2023-02-05T01:41:00.129Z,-0.80
2023-02-05T01:44:06.606Z,-0.87
2023-02-05T01:46:55.952Z,-0.93
2023-02-05T01:49:43.968Z,-1.14
2023-02-05T01:52:29.476Z,-1.10
2023-02-05T01:55:16.113Z,-1.06
2023-02-05T01:58:02.287Z,-0.92
2023-02-05T02:00:48.418Z,-0.79
2023-02-05T02:03:33.896Z,-0.88
2023-02-05T02:06:19.520Z,-1.03
2023-02-05T02:09:07.436Z,-1.12
2023-02-05T02:11:54.984Z,-1.25
2023-02-05T02:14:44.494Z,-1.24
2023-02-05T02:17:32.868Z,-1.25
2023-02-05T02:20:23.484Z,-1.33
2023-02-05T02:23:36.441Z,-1.49
2023-02-05T02:26:58.890Z,-1.69
2023-02-05T02:29:58.548Z,-1.63
2023-02-05T02:32:51.375Z,-1.42
2023-02-05T02:35:47.049Z,-1.45
2023-02-05T02:38:41.276Z,-1.63
2023-02-05T02:41:49.187Z,-1.32
2023-02-05T02:44:48.692Z,-1.06
2023-02-05T02:47:42.502Z,-1.12
2023-02-05T02:50:35.814Z,-1.32
2023-02-05T02:53:26.837Z,-1.53
2023-02-05T02:56:15.021Z,-1.66
2023-02-05T02:59:08.470Z,-1.73
2023-02-05T03:01:57.329Z,-1.68
2023-02-05T03:04:49.208Z,-1.62
2023-02-05T03:07:39.452Z,-1.32
2023-02-05T03:10:54.172Z,-1.29
2023-02-05T03:13:42.458Z,-1.35
2023-02-05T03:16:31.169Z,-1.47
2023-02-05T03:19:17.155Z,-1.36
2023-02-05T03:22:05.260Z,-1.36
2023-02-05T03:24:51.317Z,-1.43
2023-02-05T03:27:38.817Z,-1.55
2023-02-05T03:30:37.981Z,-1.74
2023-02-05T03:33:42.294Z,-1.80
2023-02-05T03:36:50.170Z,-1.65
2023-02-05T03:40:02.264Z,-1.73
2023-02-05T03:43:12.155Z,-1.87
2023-02-05T03:46:16.084Z,-1.96
2023-02-05T03:49:28.529Z,-1.97
2023-02-05T03:52:19.650Z,-1.97
2023-02-05T03:55:19.712Z,-1.89
2023-02-05T03:58:23.471Z,-1.81
2023-02-05T04:01:11.747Z,-1.67
2023-02-05T04:03:57.439Z,-1.67
2023-02-05T04:06:53.443Z,-1.81
2023-02-05T04:09:39.206Z,-1.90
2023-02-05T04:12:24.910Z,-1.88
2023-02-05T04:15:11.022Z,-1.83
2023-02-05T04:17:59.100Z,-1.80
2023-02-05T04:20:46.582Z,-1.87
2023-02-05T04:23:34.728Z,-1.73
2023-02-05T04:26:20.466Z,-1.62
2023-02-05T04:29:16.100Z,-1.65
2023-02-05T04:32:05.258Z,-1.55
2023-02-05T04:34:51.270Z,-1.46
2023-02-05T04:37:37.351Z,-1.43
2023-02-05T04:40:22.798Z,-1.35
2023-02-05T04:43:08.339Z,-1.23
2023-02-05T04:45:53.726Z,-1.21
2023-02-05T04:48:39.455Z,-1.32
2023-02-05T04:51:25.202Z,-1.51
2023-02-05T04:54:10.701Z,-1.60
2023-02-05T04:56:56.067Z,-1.69
2023-02-05T04:59:41.452Z,-1.88
2023-02-05T05:02:26.809Z,-2.05
2023-02-05T05:05:12.144Z,-2.25
2023-02-05T05:07:59.466Z,-2.40
2023-02-05T05:10:45.339Z,-2.55
2023-02-05T05:13:33.426Z,-2.63
2023-02-05T05:16:19.393Z,-2.66
2023-02-05T05:19:05.311Z,-2.75
2023-02-05T05:21:50.874Z,-2.61
2023-02-05T05:24:36.228Z,-2.49
2023-02-05T05:27:23.262Z,-2.55
2023-02-05T05:30:09.330Z,-2.62
2023-02-05T05:32:54.880Z,-2.63
2023-02-05T05:35:40.424Z,-2.63
2023-02-05T05:38:26.018Z,-2.62
2023-02-05T05:41:39.980Z,-2.69
2023-02-05T05:44:25.326Z,-2.69
2023-02-05T05:47:10.639Z,-2.62
2023-02-05T05:49:55.879Z,-2.59
2023-02-05T05:52:41.117Z,-2.63
2023-02-05T05:55:26.511Z,-2.62
2023-02-05T05:58:12.040Z,-2.67
2023-02-05T06:00:57.548Z,-2.72
2023-02-05T06:03:43.194Z,-2.73
2023-02-05T06:06:28.592Z,-2.80
2023-02-05T06:09:14.097Z,-2.86
2023-02-05T06:11:59.763Z,-2.85
2023-02-05T06:14:45.495Z,-2.86
2023-02-05T06:17:31.045Z,-2.94
2023-02-05T06:20:16.539Z,-3.00
2023-02-05T06:23:01.997Z,-2.97
2023-02-05T06:25:47.423Z,-2.98
2023-02-05T06:28:32.830Z,-3.06
2023-02-05T06:31:18.366Z,-3.12
2023-02-05T06:34:04.091Z,-3.07
2023-02-05T06:36:49.605Z,-3.00
2023-02-05T06:39:34.954Z,-2.96
2023-02-05T06:42:20.609Z,-2.88
2023-02-05T06:45:06.697Z,-2.77
2023-02-05T06:47:56.011Z,-2.72
2023-02-05T06:50:41.330Z,-2.72
2023-02-05T06:53:26.634Z,-2.62
2023-02-05T06:56:12.255Z,-2.54
2023-02-05T06:58:57.582Z,-2.52
2023-02-05T07:01:43.014Z,-2.58
2023-02-05T07:04:31.082Z,-2.70
2023-02-05T07:07:17.292Z,-2.72
2023-02-05T07:10:03.296Z,-2.75
2023-02-05T07:12:48.969Z,-2.71
2023-02-05T07:15:37.754Z,-2.62
2023-02-05T07:18:24.460Z,-2.54
2023-02-05T07:21:14.122Z,-2.56
2023-02-05T07:23:59.283Z,-2.60
2023-02-05T07:26:45.449Z,-2.63
2023-02-05T07:29:31.356Z,-2.74
2023-02-05T07:32:16.884Z,-2.74
2023-02-05T07:35:02.332Z,-2.59
2023-02-05T07:37:47.705Z,-2.58
2023-02-05T07:40:33.016Z,-2.51
2023-02-05T07:43:18.457Z,-2.42
2023-02-05T07:46:06.620Z,-2.37
2023-02-05T07:48:52.232Z,-2.40
2023-02-05T07:51:37.721Z,-2.43
2023-02-05T07:54:23.228Z,-2.38
2023-02-05T07:57:08.631Z,-2.41
2023-02-05T07:59:53.874Z,-2.53
2023-02-05T08:02:39.829Z,-2.56
2023-02-05T08:05:25.116Z,-2.49
2023-02-05T08:08:12.132Z,-2.41
2023-02-05T08:10:59.654Z,-2.43
2023-02-05T08:13:45.966Z,-2.46
2023-02-05T08:16:31.276Z,-2.50
2023-02-05T08:19:18.088Z,-2.50
2023-02-05T08:22:03.667Z,-2.42
2023-02-05T08:24:48.890Z,-2.45
2023-02-05T08:27:36.449Z,-2.47
2023-02-05T08:30:22.174Z,-2.44
2023-02-05T08:33:07.922Z,-2.39
2023-02-05T08:35:53.322Z,-2.39
2023-02-05T08:38:38.895Z,-2.28
2023-02-05T08:41:24.661Z,-2.20
2023-02-05T08:44:10.169Z,-2.16
2023-02-05T08:46:56.009Z,-2.06
2023-02-05T08:49:41.615Z,-1.99
2023-02-05T08:52:26.834Z,-1.92
2023-02-05T08:55:12.572Z,-1.89
2023-02-05T08:57:57.882Z,-1.77
2023-02-05T09:00:43.270Z,-1.66
2023-02-05T09:03:29.324Z,-1.60
2023-02-05T09:06:16.437Z,-1.48
2023-02-05T09:09:02.327Z,-1.36
2023-02-05T09:11:47.620Z,-1.27
2023-02-05T09:14:36.380Z,-1.20
2023-02-05T09:17:22.061Z,-1.12
2023-02-05T09:20:07.791Z,-1.03
2023-02-05T09:22:54.204Z,-0.94
2023-02-05T09:25:41.152Z,-0.88
2023-02-05T09:28:27.007Z,-0.80
2023-02-05T09:31:16.294Z,-0.73
2023-02-05T09:34:03.646Z,-0.63
2023-02-05T09:36:48.966Z,-0.47
2023-02-05T09:40:17.594Z,-0.37
2023-02-05T09:42:52.638Z,-0.27
2023-02-05T09:45:42.569Z,-0.20
2023-02-05T09:48:31.177Z,-0.11
2023-02-05T09:51:20.349Z,-0.03
2023-02-05T09:54:28.026Z,0.05
2023-02-05T09:57:17.847Z,0.10
2023-02-05T10:00:16.554Z,0.15
2023-02-05T10:03:12.186Z,0.20
2023-02-05T10:06:26.682Z,0.30
2023-02-05T10:09:40.436Z,0.39
2023-02-05T10:12:48.142Z,0.53
2023-02-05T10:15:51.663Z,0.67
2023-02-05T10:19:00.206Z,0.78
2023-02-05T10:22:22.572Z,0.94
2023-02-05T10:25:14.237Z,1.00
2023-02-05T10:28:25.889Z,1.12
2023-02-05T10:31:17.774Z,1.23
2023-02-05T10:34:38.998Z,1.31
2023-02-05T10:37:46.061Z,1.42
2023-02-05T10:40:39.453Z,1.53
2023-02-05T10:43:34.246Z,1.64
2023-02-05T10:46:20.523Z,1.73
2023-02-05T10:49:16.990Z,1.88
2023-02-05T10:52:02.605Z,2.00
2023-02-05T10:54:48.307Z,2.13
2023-02-05T10:57:35.764Z,2.24
2023-02-05T11:00:23.318Z,2.36
2023-02-05T11:03:17.226Z,2.46
2023-02-05T11:06:07.416Z,2.54
2023-02-05T11:08:53.447Z,2.66
2023-02-05T11:11:40.431Z,2.76
2023-02-05T11:14:40.867Z,2.88
2023-02-05T11:17:36.250Z,2.98
2023-02-05T11:20:31.656Z,3.05
2023-02-05T11:23:23.459Z,3.17
2023-02-05T11:26:23.222Z,3.29
2023-02-05T11:29:23.698Z,3.40
2023-02-05T11:32:33.874Z,3.50
2023-02-05T11:35:25.934Z,3.63
2023-02-05T11:38:27.517Z,3.77
2023-02-05T11:41:48.203Z,3.87
2023-02-05T11:44:35.852Z,3.95
2023-02-05T11:47:31.781Z,4.02
2023-02-05T11:50:36.013Z,4.10
2023-02-05T11:53:22.455Z,4.20
2023-02-05T11:56:12.182Z,4.27
2023-02-05T11:59:03.273Z,4.35
2023-02-05T12:01:48.881Z,4.44
2023-02-05T12:04:46.451Z,4.50
2023-02-05T12:07:48.928Z,4.57
2023-02-05T12:10:53.027Z,4.69
2023-02-05T12:13:50.717Z,4.81
2023-02-05T12:17:01.604Z,4.91
2023-02-05T12:20:17.560Z,4.99
2023-02-05T12:23:37.966Z,5.08
2023-02-05T12:26:35.114Z,5.17
2023-02-05T12:29:48.551Z,5.30
2023-02-05T12:32:40.057Z,5.43
2023-02-05T12:35:25.351Z,5.47
2023-02-05T12:38:37.976Z,5.51
2023-02-05T12:41:33.804Z,5.55
2023-02-05T12:44:22.290Z,5.60
2023-02-05T12:47:12.402Z,5.65
2023-02-05T12:50:10.726Z,5.68
2023-02-05T12:53:33.558Z,5.69
2023-02-05T12:56:56.821Z,5.73
2023-02-05T13:00:03.885Z,5.75
2023-02-05T13:03:13.990Z,5.80
2023-02-05T13:06:08.937Z,5.87
2023-02-05T13:09:19.286Z,5.99
2023-02-05T13:12:13.878Z,6.05
2023-02-05T13:14:59.117Z,6.07
2023-02-05T13:17:59.574Z,6.14
2023-02-05T13:21:11.890Z,6.19
2023-02-05T13:24:49.852Z,6.24
2023-02-05T13:28:08.161Z,6.29
2023-02-05T13:30:56.130Z,6.36
2023-02-05T13:33:42.484Z,6.47
2023-02-05T13:36:46.722Z,6.59
2023-02-05T13:39:44.531Z,6.70
2023-02-05T13:42:40.071Z,6.83
2023-02-05T13:45:34.635Z,7.04
2023-02-05T13:49:03.016Z,7.27
2023-02-05T13:51:57.435Z,7.47
2023-02-05T13:55:22.806Z,7.60
2023-02-05T13:58:50.227Z,7.71
2023-02-05T14:01:51.871Z,7.80
2023-02-05T14:04:42.440Z,7.89
2023-02-05T14:07:32.803Z,7.98
2023-02-05T14:10:32.342Z,8.08
2023-02-05T14:13:34.595Z,8.20
2023-02-05T14:16:26.296Z,8.29
2023-02-05T14:19:17.485Z,8.28
2023-02-05T14:22:07.469Z,8.37
2023-02-05T14:24:53.279Z,8.55
2023-02-05T14:27:38.307Z,8.77
2023-02-05T14:30:29.962Z,8.96
2023-02-05T14:33:42.732Z,9.15
2023-02-05T14:36:35.299Z,9.28
2023-02-05T14:39:25.213Z,9.39
2023-02-05T14:42:20.631Z,9.50
2023-02-05T14:45:06.503Z,9.54
2023-02-05T14:47:52.686Z,9.55
2023-02-05T14:50:39.029Z,9.47
2023-02-05T14:53:26.817Z,9.38
2023-02-05T14:56:26.029Z,9.24
2023-02-05T14:59:38.808Z,9.09
2023-02-05T15:03:11.887Z,8.90
2023-02-05T15:06:09.356Z,8.71
2023-02-05T15:09:13.499Z,8.55
2023-02-05T15:12:08.148Z,8.47
2023-02-05T15:14:57.246Z,8.55
2023-02-05T15:17:51.879Z,8.75
2023-02-05T15:20:40.544Z,8.98
2023-02-05T15:23:36.556Z,9.10
2023-02-05T15:26:39.754Z,9.04
2023-02-05T15:29:41.716Z,8.96
2023-02-05T15:32:36.284Z,8.85
2023-02-05T15:35:28.548Z,8.67
2023-02-05T15:38:35.434Z,8.49
2023-02-05T15:41:22.604Z,8.31
2023-02-05T15:44:22.461Z,8.09
2023-02-05T15:47:15.338Z,7.94
2023-02-05T15:50:02.454Z,7.80
2023-02-05T15:52:48.063Z,7.65
2023-02-05T15:55:34.250Z,7.55
2023-02-05T15:58:24.431Z,7.44
2023-02-05T16:01:09.918Z,7.35
2023-02-05T16:03:55.489Z,7.22
2023-02-05T16:06:41.245Z,7.09
2023-02-05T16:09:29.562Z,6.91
2023-02-05T16:12:15.834Z,6.85
2023-02-05T16:15:03.995Z,6.75
2023-02-05T16:17:52.260Z,6.67
2023-02-05T16:20:43.906Z,6.58
2023-02-05T16:23:29.298Z,6.52
2023-02-05T16:26:24.156Z,6.47
2023-02-05T16:29:25.873Z,6.38
2023-02-05T16:32:20.734Z,6.28
2023-02-05T16:35:14.449Z,6.24
2023-02-05T16:38:01.391Z,6.14
2023-02-05T16:40:50.629Z,6.05
2023-02-05T16:43:39.248Z,5.95
2023-02-05T16:46:32.795Z,5.85
2023-02-05T16:49:24.730Z,5.78
2023-02-05T16:52:26.473Z,5.67
2023-02-05T16:55:15.202Z,5.61
2023-02-05T16:58:06.310Z,5.56
2023-02-05T17:00:55.717Z,5.47
2023-02-05T17:03:48.167Z,5.38
2023-02-05T17:06:36.578Z,5.25
2023-02-05T17:09:31.109Z,5.08
2023-02-05T17:12:22.504Z,4.78
2023-02-05T17:15:13.853Z,4.43
2023-02-05T17:18:20.166Z,4.25
2023-02-05T17:21:28.186Z,3.99
2023-02-05T17:24:14.929Z,3.84
2023-02-05T17:27:00.281Z,3.90
2023-02-05T17:29:46.301Z,3.94
2023-02-05T17:32:32.846Z,3.91
2023-02-05T17:35:19.331Z,3.96
2023-02-05T17:38:05.141Z,3.96
2023-02-05T17:41:10.795Z,3.99
2023-02-05T17:43:56.485Z,4.00
2023-02-05T17:46:42.780Z,4.02
2023-02-05T17:49:28.358Z,3.98
2023-02-05T17:52:15.553Z,4.00
2023-02-05T17:55:01.233Z,4.06
2023-02-05T17:57:46.922Z,4.08
2023-02-05T18:00:32.434Z,4.08
2023-02-05T18:03:18.239Z,4.07
2023-02-05T18:06:04.075Z,4.02
2023-02-05T18:08:49.396Z,4.00
2023-02-05T18:11:34.916Z,3.99
2023-02-05T18:14:20.536Z,3.90
2023-02-05T18:17:05.960Z,3.80
2023-02-05T18:19:51.150Z,3.68
2023-02-05T18:22:37.157Z,3.57
2023-02-05T18:25:22.451Z,3.47
2023-02-05T18:28:08.000Z,3.36
2023-02-05T18:31:05.763Z,3.22
2023-02-05T18:33:52.770Z,2.94
2023-02-05T18:36:38.417Z,2.63
2023-02-05T18:39:28.602Z,2.39
2023-02-05T18:42:14.640Z,2.11
2023-02-05T18:45:01.374Z,1.91
2023-02-05T18:47:47.053Z,1.86
2023-02-05T18:50:32.699Z,1.64
2023-02-05T18:53:17.947Z,1.62
2023-02-05T18:56:05.517Z,1.65
2023-02-05T18:59:01.106Z,1.74
2023-02-05T19:01:47.198Z,1.99
2023-02-05T19:04:33.220Z,2.17
2023-02-05T19:07:20.610Z,2.29
2023-02-05T19:10:06.212Z,2.41
2023-02-05T19:12:51.613Z,2.46
2023-02-05T19:15:36.884Z,2.35
2023-02-05T19:18:22.859Z,2.28
2023-02-05T19:21:14.456Z,2.15
2023-02-05T19:24:05.660Z,1.96
2023-02-05T19:26:51.392Z,1.73
2023-02-05T19:29:40.080Z,1.55
2023-02-05T19:32:25.476Z,1.33
2023-02-05T19:35:10.996Z,1.08
2023-02-05T19:37:56.269Z,0.93
2023-02-05T19:40:42.069Z,0.80
2023-02-05T19:43:27.357Z,0.76
2023-02-05T19:46:12.862Z,0.77
2023-02-05T19:49:01.908Z,0.81
2023-02-05T19:51:49.835Z,0.67
2023-02-05T19:54:36.120Z,0.61
2023-02-05T19:57:21.733Z,0.43
2023-02-05T20:00:07.690Z,0.24
2023-02-05T20:02:57.878Z,0.07
2023-02-05T20:05:43.222Z,-0.05
2023-02-05T20:08:29.440Z,-0.21
2023-02-05T20:11:15.959Z,-0.26
2023-02-05T20:14:01.925Z,-0.36
2023-02-05T20:16:47.935Z,-0.46
2023-02-05T20:19:33.521Z,-0.50
2023-02-05T20:22:20.117Z,-0.58
2023-02-05T20:25:06.238Z,-0.51
2023-02-05T20:27:51.881Z,-0.54
2023-02-05T20:30:56.017Z,-0.59
2023-02-05T20:33:43.150Z,-0.61
2023-02-05T20:36:29.676Z,-0.70
2023-02-05T20:39:17.590Z,-0.84
2023-02-05T20:42:03.631Z,-0.83
2023-02-05T20:44:49.219Z,-0.85
2023-02-05T20:47:34.436Z,-0.82
2023-02-05T20:50:19.812Z,-0.94
2023-02-05T20:53:05.495Z,-0.95
2023-02-05T20:55:51.239Z,-0.98
2023-02-05T20:58:38.160Z,-1.06
2023-02-05T21:01:28.361Z,-1.10
2023-02-05T21:04:14.087Z,-1.07
2023-02-05T21:06:59.500Z,-1.14
2023-02-05T21:09:45.034Z,-1.13
2023-02-05T21:12:32.384Z,-1.05
2023-02-05T21:15:17.857Z,-1.05
2023-02-05T21:18:03.539Z,-1.11
2023-02-05T21:20:49.371Z,-1.07
2023-02-05T21:23:35.540Z,-1.06
2023-02-05T21:26:23.318Z,-1.09
2023-02-05T21:29:11.723Z,-1.01
2023-02-05T21:31:57.158Z,-1.02
2023-02-05T21:34:42.793Z,-1.05
2023-02-05T21:37:28.294Z,-1.07
2023-02-05T21:40:13.600Z,-1.09
2023-02-05T21:42:58.944Z,-1.17
2023-02-05T21:45:44.562Z,-1.28
2023-02-05T21:48:29.967Z,-1.29
2023-02-05T21:51:17.230Z,-1.42
2023-02-05T21:54:05.217Z,-1.40
2023-02-05T21:56:50.616Z,-1.44
2023-02-05T21:59:35.944Z,-1.47
2023-02-05T22:02:21.161Z,-1.42
2023-02-05T22:05:07.126Z,-1.49
2023-02-05T22:07:52.528Z,-1.55
2023-02-05T22:10:37.916Z,-1.65
2023-02-05T22:13:23.399Z,-1.72
2023-02-05T22:16:12.149Z,-1.73
2023-02-05T22:18:58.584Z,-1.73
2023-02-05T22:21:43.993Z,-1.81
2023-02-05T22:24:29.712Z,-1.94
2023-02-05T22:27:14.952Z,-1.99
2023-02-05T22:30:00.348Z,-1.97
2023-02-05T22:32:45.607Z,-1.99
2023-02-05T22:35:31.153Z,-2.05
2023-02-05T22:38:16.423Z,-2.01
2023-02-05T22:41:06.530Z,-2.02
2023-02-05T22:43:54.449Z,-2.00
2023-02-05T22:46:42.875Z,-1.96
2023-02-05T22:49:28.494Z,-1.94
2023-02-05T22:52:13.663Z,-1.93
2023-02-05T22:54:59.142Z,-1.98
2023-02-05T22:57:44.480Z,-1.95
2023-02-05T23:00:31.530Z,-1.88
2023-02-05T23:03:17.118Z,-1.88
2023-02-05T23:06:11.346Z,-1.97
2023-02-05T23:08:59.635Z,-2.12
2023-02-05T23:11:45.435Z,-2.21
2023-02-05T23:14:31.091Z,-2.20
2023-02-05T23:17:16.337Z,-2.19
2023-02-05T23:20:02.373Z,-2.14
2023-02-05T23:22:48.181Z,-2.13
2023-02-05T23:25:36.511Z,-2.13
2023-02-05T23:28:22.395Z,-2.10
2023-02-05T23:31:07.895Z,-2.16
2023-02-05T23:33:53.914Z,-2.21
2023-02-05T23:36:39.744Z,-2.23
2023-02-05T23:39:25.090Z,-2.17
2023-02-05T23:42:11.994Z,-2.12
2023-02-05T23:44:57.460Z,-2.11
2023-02-05T23:47:42.764Z,-2.08
2023-02-05T23:50:28.415Z,-2.08
2023-02-05T23:53:13.979Z,-1.97
2023-02-05T23:55:59.519Z,-1.92
2023-02-05T23:58:44.949Z,-1.81
